Time;durP1;ratioP1;P1;durP2;ratioP2;P2;SDS_P1;SDS_P2;PMS_P1;PMS_P2;Temp;Humidity;BMP_temperature;BMP_pressure;BME280_temperature;BME280_humidity;BME280_pressure;Samples;Min_cycle;Max_cycle;Signal;HPM_P1;HPM_P2
2023/09/21 00:01:45;;;;;;;0.50;0.50;;;18.00;99.90;;;;;;5057280;28;20041;-70
2023/09/21 00:04:11;;;;;;;0.50;0.50;;;18.00;99.90;;;;;;5051732;28;20153;-70
2023/09/21 00:06:36;;;;;;;0.98;0.98;;;18.00;99.90;;;;;;5055229;28;20052;-70
2023/09/21 00:09:03;;;;;;;2.95;1.05;;;17.90;99.90;;;;;;5050407;28;20032;-70
2023/09/21 00:11:32;;;;;;;0.63;0.60;;;17.90;99.90;;;;;;5051851;28;20048;-70
2023/09/21 00:13:58;;;;;;;0.52;0.52;;;17.80;99.90;;;;;;5051690;28;20414;-70
2023/09/21 00:16:27;;;;;;;1.08;1.00;;;17.80;99.90;;;;;;5045482;28;20061;-70
2023/09/21 00:18:53;;;;;;;1.17;1.08;;;17.80;99.90;;;;;;5057086;28;20037;-70
2023/09/21 00:21:19;;;;;;;0.50;0.50;;;17.80;99.90;;;;;;5051109;28;20045;-70
2023/09/21 00:23:47;;;;;;;0.40;0.40;;;17.70;99.90;;;;;;5051136;28;20063;-70
2023/09/21 00:26:14;;;;;;;0.50;0.50;;;17.70;99.90;;;;;;5051457;28;20053;-70
2023/09/21 00:28:41;;;;;;;0.95;0.95;;;17.70;99.90;;;;;;5058043;28;20503;-70
2023/09/21 00:31:06;;;;;;;0.57;0.57;;;17.60;99.90;;;;;;5051890;28;20121;-70
2023/09/21 00:33:33;;;;;;;0.50;0.50;;;17.60;99.90;;;;;;5049851;28;20061;-70
2023/09/21 00:35:59;;;;;;;0.50;0.50;;;17.60;99.90;;;;;;5045523;28;20074;-69
2023/09/21 00:38:25;;;;;;;0.50;0.50;;;17.60;99.90;;;;;;5061482;28;20037;-70
2023/09/21 00:41:04;;;;;;;0.85;0.80;;;17.60;99.90;;;;;;5057457;28;20099;-70
2023/09/21 00:43:29;;;;;;;1.38;0.98;;;17.60;99.90;;;;;;5053744;28;20076;-70
2023/09/21 00:45:57;;;;;;;0.80;0.80;;;17.60;99.90;;;;;;5055088;28;20091;-70
2023/09/21 00:48:26;;;;;;;0.57;0.57;;;17.60;99.90;;;;;;5060942;28;20053;-70
2023/09/21 00:50:54;;;;;;;5.70;1.27;;;17.60;99.90;;;;;;5057310;28;20052;-70
2023/09/21 00:53:23;;;;;;;0.30;0.30;;;17.60;99.90;;;;;;5049047;28;20048;-70
2023/09/21 00:55:55;;;;;;;1.20;1.10;;;17.60;99.90;;;;;;5049418;28;20917;-70
2023/09/21 00:58:23;;;;;;;0.80;0.80;;;17.60;99.90;;;;;;5052662;28;20043;-70
2023/09/21 01:00:50;;;;;;;;;;;17.60;99.90;;;;;;5043573;28;20052;-70
2023/09/21 01:03:17;;;;;;;0.50;0.50;;;17.60;99.90;;;;;;5053917;28;20309;-70
2023/09/21 01:05:45;;;;;;;0.73;0.73;;;17.60;99.90;;;;;;5042422;28;20053;-70
2023/09/21 01:08:45;;;;;;;1.50;0.95;;;17.60;99.90;;;;;;5045094;28;20048;-70
2023/09/21 01:11:14;;;;;;;0.32;0.32;;;17.50;99.90;;;;;;5049726;28;20049;-70
2023/09/21 01:13:41;;;;;;;0.70;0.57;;;17.50;99.90;;;;;;5056409;28;20139;-69
2023/09/21 01:16:17;;;;;;;0.60;0.60;;;17.50;99.90;;;;;;5057003;28;20080;-70
2023/09/21 01:18:43;;;;;;;0.70;0.70;;;17.50;99.90;;;;;;5040043;28;20040;-70
2023/09/21 01:21:10;;;;;;;0.68;0.68;;;17.50;99.90;;;;;;5052722;28;20051;-71
2023/09/21 01:23:45;;;;;;;0.73;0.73;;;17.50;99.90;;;;;;5057858;28;20048;-70
2023/09/21 01:26:13;;;;;;;0.57;0.57;;;17.50;99.90;;;;;;5059898;28;20155;-70
2023/09/21 01:28:39;;;;;;;0.50;0.50;;;17.60;99.90;;;;;;5051701;28;20052;-70
2023/09/21 01:31:09;;;;;;;0.50;0.50;;;17.50;99.90;;;;;;5055720;28;20540;-70
2023/09/21 01:33:35;;;;;;;0.60;0.60;;;17.50;99.90;;;;;;5043435;28;20049;-70
2023/09/21 01:36:01;;;;;;;0.60;0.60;;;17.50;99.90;;;;;;5053674;28;20082;-70
2023/09/21 01:38:28;;;;;;;0.60;0.60;;;17.50;99.90;;;;;;5054749;28;20048;-69
2023/09/21 01:40:54;;;;;;;2.15;0.80;;;17.50;99.90;;;;;;5050850;28;20087;-69
2023/09/21 01:43:20;;;;;;;4.07;0.77;;;17.50;99.90;;;;;;5063655;28;20041;-70
2023/09/21 01:45:48;;;;;;;0.60;0.60;;;17.50;99.90;;;;;;5048154;28;20390;-70
2023/09/21 01:48:15;;;;;;;0.65;0.55;;;17.40;99.90;;;;;;5054785;28;20045;-70
2023/09/21 01:50:45;;;;;;;0.65;0.52;;;17.50;99.90;;;;;;5049415;28;20043;-70
2023/09/21 01:53:11;;;;;;;0.47;0.47;;;17.50;99.90;;;;;;5054953;28;20394;-70
2023/09/21 01:55:38;;;;;;;0.73;0.73;;;17.50;99.90;;;;;;5053237;28;20056;-70
2023/09/21 01:58:05;;;;;;;0.40;0.40;;;17.40;99.90;;;;;;5062199;28;20494;-70
2023/09/21 02:00:35;;;;;;;0.50;0.50;;;17.50;99.90;;;;;;5051604;28;20425;-70
2023/09/21 02:03:06;;;;;;;0.47;0.47;;;17.50;99.90;;;;;;5041608;28;20052;-71
2023/09/21 02:05:33;;;;;;;0.47;0.47;;;17.40;99.90;;;;;;5029214;28;20064;-70
2023/09/21 02:07:59;;;;;;;5.65;1.35;;;17.40;99.90;;;;;;5048527;28;20078;-70
2023/09/21 02:10:25;;;;;;;0.80;0.80;;;17.40;99.90;;;;;;5060829;28;20039;-70
2023/09/21 02:12:59;;;;;;;0.45;0.45;;;17.40;99.90;;;;;;5042708;28;20061;-70
2023/09/21 02:15:26;;;;;;;0.30;0.30;;;17.40;99.90;;;;;;5053790;28;20045;-70
2023/09/21 02:17:55;;;;;;;0.63;0.63;;;17.40;99.90;;;;;;5054543;28;20037;-70
2023/09/21 02:20:22;;;;;;;0.50;0.50;;;17.40;99.90;;;;;;5048412;28;20128;-70
2023/09/21 02:22:49;;;;;;;0.60;0.60;;;17.30;99.90;;;;;;5030233;28;20100;-70
2023/09/21 02:25:16;;;;;;;0.87;0.77;;;17.40;99.90;;;;;;5044985;28;20048;-70
2023/09/21 02:27:46;;;;;;;0.52;0.52;;;17.30;99.90;;;;;;5053540;28;20310;-70
2023/09/21 02:30:17;;;;;;;0.60;0.60;;;17.30;99.90;;;;;;5055742;28;20102;-70
2023/09/21 02:32:43;;;;;;;0.50;0.50;;;17.30;99.90;;;;;;5048335;28;20486;-70
2023/09/21 02:35:16;;;;;;;0.40;0.40;;;17.30;99.90;;;;;;5049755;28;20109;-70
2023/09/21 02:37:49;;;;;;;0.55;0.55;;;17.20;99.90;;;;;;5046863;28;20049;-70
2023/09/21 02:40:17;;;;;;;0.52;0.52;;;17.20;99.90;;;;;;5045428;28;20069;-70
2023/09/21 02:42:49;;;;;;;0.50;0.50;;;17.20;99.90;;;;;;5053774;28;20481;-71
2023/09/21 02:45:16;;;;;;;0.90;0.90;;;17.20;99.90;;;;;;5043587;28;20497;-70
2023/09/21 02:47:42;;;;;;;0.65;0.65;;;17.20;99.90;;;;;;5045214;28;20092;-70
2023/09/21 02:50:14;;;;;;;0.47;0.47;;;17.20;99.90;;;;;;5042813;28;20492;-70
2023/09/21 02:52:45;;;;;;;0.70;0.70;;;17.20;99.90;;;;;;5050459;28;20045;-70
2023/09/21 02:55:12;;;;;;;0.30;0.30;;;17.20;99.90;;;;;;5039636;28;20045;-70
2023/09/21 02:57:37;;;;;;;0.60;0.60;;;17.20;99.90;;;;;;5047024;28;20154;-70
2023/09/21 03:00:12;;;;;;;0.30;0.30;;;17.20;99.90;;;;;;5040336;28;20082;-70
2023/09/21 03:02:37;;;;;;;0.93;0.93;;;17.10;99.90;;;;;;5041810;28;20406;-70
2023/09/21 03:05:03;;;;;;;0.80;0.80;;;17.10;99.90;;;;;;5039421;28;20045;-70
2023/09/21 03:07:29;;;;;;;0.50;0.50;;;17.10;99.90;;;;;;5031307;28;20048;-70
2023/09/21 03:09:55;;;;;;;0.75;0.75;;;17.10;99.90;;;;;;5053595;28;20045;-70
2023/09/21 03:12:22;;;;;;;0.40;0.40;;;17.10;99.90;;;;;;5050624;28;20044;-70
2023/09/21 03:14:48;;;;;;;0.30;0.30;;;17.10;99.90;;;;;;5046241;28;20045;-70
2023/09/21 03:17:14;;;;;;;0.47;0.47;;;17.00;99.90;;;;;;5059750;28;20053;-70
2023/09/21 03:19:40;;;;;;;0.77;0.77;;;17.00;99.90;;;;;;5050437;28;20053;-70
2023/09/21 03:22:06;;;;;;;0.57;0.57;;;17.10;99.90;;;;;;5055948;28;20461;-70
2023/09/21 03:24:33;;;;;;;0.50;0.50;;;17.10;99.90;;;;;;5044884;28;20106;-70
2023/09/21 03:26:58;;;;;;;0.50;0.50;;;17.10;99.90;;;;;;5058524;28;20064;-70
2023/09/21 03:29:24;;;;;;;0.52;0.52;;;17.10;99.90;;;;;;5033450;28;20045;-70
2023/09/21 03:31:50;;;;;;;0.47;0.47;;;17.10;99.90;;;;;;5055184;28;20048;-70
2023/09/21 03:34:15;;;;;;;0.65;0.65;;;17.10;99.90;;;;;;5058509;28;20484;-70
2023/09/21 03:36:42;;;;;;;0.55;0.55;;;17.10;99.90;;;;;;5058656;28;20060;-70
2023/09/21 03:39:11;;;;;;;1.08;1.00;;;17.10;99.90;;;;;;5062340;28;20055;-70
2023/09/21 03:41:36;;;;;;;0.50;0.50;;;17.20;99.90;;;;;;5054243;28;20071;-70
2023/09/21 03:44:05;;;;;;;1.00;0.68;;;17.10;99.90;;;;;;5060093;28;20510;-71
2023/09/21 03:46:31;;;;;;;;;;;17.10;99.90;;;;;;5054899;28;20793;-70
2023/09/21 03:48:56;;;;;;;1.08;0.93;;;17.10;99.90;;;;;;5052407;28;19932;-71
2023/09/21 03:51:22;;;;;;;0.77;0.77;;;17.10;99.90;;;;;;5062727;28;20468;-70
2023/09/21 03:53:47;;;;;;;0.40;0.40;;;17.00;99.90;;;;;;5052999;28;20045;-71
2023/09/21 03:56:13;;;;;;;0.68;0.68;;;17.00;99.90;;;;;;5054925;28;20037;-71
2023/09/21 03:58:39;;;;;;;0.50;0.50;;;17.00;99.90;;;;;;5058155;28;20059;-70
2023/09/21 04:01:08;;;;;;;0.32;0.32;;;17.00;99.90;;;;;;5060619;28;20075;-71
2023/09/21 04:03:34;;;;;;;0.40;0.40;;;17.00;99.90;;;;;;5049714;28;20049;-71
2023/09/21 04:06:03;;;;;;;0.40;0.40;;;16.90;99.90;;;;;;5052732;28;20052;-70
2023/09/21 04:08:31;;;;;;;0.30;0.30;;;16.80;99.90;;;;;;5058393;28;20109;-69
2023/09/21 04:11:00;;;;;;;0.30;0.30;;;16.80;99.90;;;;;;5057570;28;20065;-70
2023/09/21 04:13:26;;;;;;;0.45;0.45;;;16.80;99.90;;;;;;5062319;28;20083;-70
2023/09/21 04:15:52;;;;;;;0.43;0.43;;;16.70;99.90;;;;;;5051602;28;20509;-71
2023/09/21 04:18:17;;;;;;;0.45;0.45;;;16.70;99.90;;;;;;5055069;28;20049;-70
2023/09/21 04:20:44;;;;;;;0.88;0.88;;;16.70;99.90;;;;;;5053508;28;20048;-70
2023/09/21 04:23:10;;;;;;;0.40;0.40;;;16.70;99.90;;;;;;5047027;28;20057;-70
2023/09/21 04:25:38;;;;;;;0.50;0.50;;;16.70;99.90;;;;;;5060619;28;20822;-71
2023/09/21 04:28:05;;;;;;;0.73;0.73;;;16.70;99.90;;;;;;5051612;28;20056;-71
2023/09/21 04:30:34;;;;;;;0.40;0.40;;;16.70;99.90;;;;;;5052776;28;20468;-70
2023/09/21 04:33:00;;;;;;;0.30;0.30;;;16.70;99.90;;;;;;5050110;28;20056;-70
2023/09/21 04:35:26;;;;;;;0.57;0.57;;;16.70;99.90;;;;;;5050729;28;20041;-71
2023/09/21 04:37:53;;;;;;;0.47;0.47;;;16.70;99.90;;;;;;5036281;28;20131;-70
2023/09/21 04:40:20;;;;;;;0.82;0.82;;;16.80;99.90;;;;;;5046318;28;20049;-70
2023/09/21 04:42:47;;;;;;;0.40;0.40;;;16.80;99.90;;;;;;5063782;28;20059;-70
2023/09/21 04:45:15;;;;;;;0.60;0.60;;;16.80;99.90;;;;;;5052788;28;20055;-70
2023/09/21 04:47:43;;;;;;;1.67;1.58;;;16.80;99.90;;;;;;5056691;28;20048;-70
2023/09/21 04:50:09;;;;;;;;;;;16.80;99.90;;;;;;5046985;28;20113;-70
2023/09/21 04:52:36;;;;;;;1.05;1.05;;;16.90;99.90;;;;;;5045992;28;19943;-70
2023/09/21 04:55:08;;;;;;;0.68;0.68;;;16.90;99.90;;;;;;5029271;28;20545;-70
2023/09/21 04:57:34;;;;;;;0.57;0.57;;;16.90;99.90;;;;;;5055101;28;20866;-70
2023/09/21 05:00:00;;;;;;;0.35;0.35;;;16.90;99.90;;;;;;5063206;28;20074;-70
2023/09/21 05:02:26;;;;;;;0.68;0.68;;;16.90;99.90;;;;;;5055622;28;20055;-70
2023/09/21 05:04:53;;;;;;;0.63;0.63;;;16.90;99.90;;;;;;5054789;28;20083;-70
2023/09/21 05:07:19;;;;;;;0.40;0.40;;;16.90;99.90;;;;;;5046135;28;20041;-70
2023/09/21 05:09:45;;;;;;;0.43;0.43;;;16.90;99.90;;;;;;5049478;28;20563;-70
2023/09/21 05:12:12;;;;;;;0.43;0.43;;;16.90;99.90;;;;;;5060173;28;20072;-70
2023/09/21 05:14:38;;;;;;;0.63;0.50;;;16.90;99.90;;;;;;5054361;28;20067;-70
2023/09/21 05:17:05;;;;;;;0.90;0.90;;;16.90;99.90;;;;;;5063585;28;20452;-70
2023/09/21 05:19:34;;;;;;;0.52;0.52;;;16.90;99.90;;;;;;5056725;28;20127;-70
2023/09/21 05:22:04;;;;;;;0.30;0.30;;;16.90;99.90;;;;;;5048562;28;20406;-70
2023/09/21 05:24:30;;;;;;;0.50;0.50;;;16.90;99.90;;;;;;5047374;28;20096;-70
2023/09/21 05:26:56;;;;;;;0.43;0.43;;;17.00;99.90;;;;;;5058431;28;20452;-70
2023/09/21 05:29:23;;;;;;;0.93;0.93;;;17.10;99.90;;;;;;5052937;28;20037;-70
2023/09/21 05:31:49;;;;;;;0.50;0.50;;;17.10;99.90;;;;;;5047808;28;20044;-70
2023/09/21 05:34:19;;;;;;;0.60;0.60;;;17.20;99.90;;;;;;5045585;28;20083;-70
2023/09/21 05:36:47;;;;;;;0.80;0.80;;;17.30;99.90;;;;;;5047237;28;20156;-70
2023/09/21 05:39:16;;;;;;;0.30;0.30;;;17.30;99.90;;;;;;5040773;28;20135;-70
2023/09/21 05:41:54;;;;;;;0.50;0.50;;;17.40;99.90;;;;;;5042524;28;20051;-70
2023/09/21 05:44:25;;;;;;;0.63;0.63;;;17.40;99.90;;;;;;5040238;28;20053;-70
2023/09/21 05:46:51;;;;;;;0.70;0.63;;;17.50;99.90;;;;;;5039167;28;20060;-70
2023/09/21 05:49:22;;;;;;;0.52;0.52;;;17.50;99.90;;;;;;5056617;28;20044;-70
2023/09/21 05:51:52;;;;;;;0.40;0.40;;;17.60;99.90;;;;;;5049441;28;20045;-70
2023/09/21 05:54:19;;;;;;;0.60;0.60;;;17.70;99.90;;;;;;5042592;28;20097;-71
2023/09/21 05:56:47;;;;;;;0.50;0.50;;;17.80;99.90;;;;;;5060697;28;20490;-70
2023/09/21 05:59:13;;;;;;;0.88;0.88;;;17.90;99.90;;;;;;5047809;28;20119;-71
2023/09/21 06:01:39;;;;;;;0.47;0.47;;;18.00;99.90;;;;;;5052846;28;20043;-70
2023/09/21 06:04:05;;;;;;;0.60;0.60;;;18.10;99.90;;;;;;5052888;28;20057;-70
2023/09/21 06:06:33;;;;;;;0.73;0.73;;;18.10;99.90;;;;;;5053960;28;20116;-70
2023/09/21 06:08:59;;;;;;;0.68;0.65;;;18.10;99.90;;;;;;5053549;28;20060;-70
2023/09/21 06:11:26;;;;;;;0.47;0.47;;;18.20;99.90;;;;;;5034537;28;20045;-71
2023/09/21 06:13:54;;;;;;;0.80;0.80;;;18.20;99.90;;;;;;5047585;28;20045;-71
2023/09/21 06:16:20;;;;;;;0.45;0.38;;;18.20;99.90;;;;;;5037246;28;20062;-71
2023/09/21 06:18:48;;;;;;;0.68;0.68;;;18.20;99.90;;;;;;5045412;28;20049;-70
2023/09/21 06:21:14;;;;;;;;;;;18.30;99.90;;;;;;5044816;28;20045;-70
2023/09/21 06:23:44;;;;;;;0.50;0.50;;;18.30;99.90;;;;;;5043822;28;19995;-70
2023/09/21 06:26:14;;;;;;;0.70;0.70;;;18.30;99.90;;;;;;5047630;28;20057;-70
2023/09/21 06:28:43;;;;;;;0.20;0.20;;;18.40;99.90;;;;;;5054268;28;20040;-70
2023/09/21 06:31:11;;;;;;;0.88;0.82;;;18.40;99.90;;;;;;5038975;28;20049;-70
2023/09/21 06:33:37;;;;;;;0.45;0.45;;;18.40;99.90;;;;;;5042933;28;20059;-70
2023/09/21 06:36:03;;;;;;;0.45;0.45;;;18.60;99.90;;;;;;5044765;28;20041;-70
2023/09/21 06:38:28;;;;;;;0.90;0.90;;;18.60;99.90;;;;;;5052463;28;20051;-71
2023/09/21 06:40:54;;;;;;;0.40;0.40;;;18.70;99.90;;;;;;5052690;28;20045;-71
2023/09/21 06:43:20;;;;;;;0.60;0.60;;;18.70;99.90;;;;;;5061952;28;20171;-71
2023/09/21 06:45:45;;;;;;;0.82;0.82;;;18.70;99.90;;;;;;5053363;28;20056;-70
2023/09/21 06:48:11;;;;;;;0.60;0.60;;;18.80;99.90;;;;;;5046861;28;20509;-70
2023/09/21 06:50:40;;;;;;;0.32;0.32;;;18.80;99.90;;;;;;5062256;28;20049;-71
2023/09/21 06:53:08;;;;;;;0.40;0.40;;;18.80;99.90;;;;;;5059374;28;20126;-70
2023/09/21 06:55:34;;;;;;;0.50;0.50;;;18.80;99.90;;;;;;5062684;28;20045;-71
2023/09/21 06:58:00;;;;;;;1.00;0.60;;;18.80;99.90;;;;;;5045304;28;20052;-71
2023/09/21 07:00:28;;;;;;;0.50;0.50;;;18.80;99.90;;;;;;5049780;28;20701;-71
2023/09/21 07:02:56;;;;;;;0.40;0.40;;;18.80;99.90;;;;;;5051446;28;20489;-71
2023/09/21 07:05:23;;;;;;;0.77;0.77;;;18.80;99.90;;;;;;5057000;28;20071;-71
2023/09/21 07:07:48;;;;;;;0.40;0.40;;;18.80;99.90;;;;;;5043921;28;20413;-71
2023/09/21 07:10:16;;;;;;;0.30;0.30;;;18.90;99.90;;;;;;5057316;28;20044;-70
2023/09/21 07:12:42;;;;;;;0.57;0.57;;;18.90;99.90;;;;;;5059482;28;20048;-71
2023/09/21 07:15:07;;;;;;;0.45;0.45;;;18.90;99.90;;;;;;5056472;28;20056;-70
2023/09/21 07:17:34;;;;;;;0.40;0.40;;;18.90;99.90;;;;;;5052891;28;20425;-70
2023/09/21 07:20:01;;;;;;;0.40;0.40;;;19.00;99.90;;;;;;5054686;28;20509;-70
2023/09/21 07:22:27;;;;;;;0.63;0.63;;;18.90;99.90;;;;;;5058228;28;20752;-70
2023/09/21 07:24:53;;;;;;;0.40;0.40;;;19.00;99.90;;;;;;5058292;28;20056;-71
2023/09/21 07:27:18;;;;;;;0.45;0.43;;;19.10;99.90;;;;;;5062160;28;20040;-71
2023/09/21 07:29:44;;;;;;;0.43;0.43;;;19.10;99.90;;;;;;5052709;28;20047;-70
2023/09/21 07:32:11;;;;;;;0.30;0.30;;;19.10;99.90;;;;;;5053472;28;20832;-70
2023/09/21 07:34:37;;;;;;;0.30;0.30;;;19.20;99.90;;;;;;5050914;28;20080;-70
2023/09/21 07:37:03;;;;;;;0.52;0.45;;;19.20;99.90;;;;;;5051585;28;20597;-71
2023/09/21 07:39:29;;;;;;;0.38;0.38;;;19.20;99.90;;;;;;5055822;28;20052;-71
2023/09/21 07:41:54;;;;;;;0.70;0.70;;;19.30;99.90;;;;;;5055693;28;20041;-71
2023/09/21 07:44:22;;;;;;;0.30;0.30;;;19.30;99.90;;;;;;5056285;28;20529;-71
2023/09/21 07:46:51;;;;;;;0.57;0.57;;;19.40;99.90;;;;;;5041947;28;20049;-71
2023/09/21 07:49:17;;;;;;;0.30;0.30;;;19.40;99.90;;;;;;5047414;28;20133;-71
2023/09/21 07:51:43;;;;;;;0.70;0.70;;;19.50;99.90;;;;;;5052451;28;20137;-71
2023/09/21 07:54:09;;;;;;;0.57;0.57;;;19.50;99.90;;;;;;5056814;28;20049;-71
2023/09/21 07:56:36;;;;;;;0.52;0.52;;;19.60;99.90;;;;;;5050839;28;20098;-71
2023/09/21 07:59:04;;;;;;;0.30;0.30;;;19.60;99.90;;;;;;5058951;28;20125;-72
2023/09/21 08:01:30;;;;;;;0.40;0.40;;;19.70;99.90;;;;;;5054625;28;20079;-71
2023/09/21 08:03:55;;;;;;;1.20;1.15;;;19.80;99.90;;;;;;5043629;28;20490;-71
2023/09/21 08:06:22;;;;;;;0.30;0.30;;;19.80;99.90;;;;;;5050090;28;20048;-71
2023/09/21 08:08:52;;;;;;;0.60;0.60;;;19.90;99.90;;;;;;5056556;28;20378;-71
2023/09/21 08:11:18;;;;;;;0.30;0.30;;;19.90;99.90;;;;;;5062860;28;20563;-71
2023/09/21 08:13:44;;;;;;;0.30;0.30;;;20.00;99.90;;;;;;5054900;28;20098;-71
2023/09/21 08:16:09;;;;;;;0.40;0.40;;;20.00;99.90;;;;;;5063840;28;20057;-72
2023/09/21 08:18:36;;;;;;;0.50;0.50;;;20.00;99.90;;;;;;5047646;28;20056;-71
2023/09/21 08:21:06;;;;;;;0.60;0.57;;;20.00;99.90;;;;;;5046144;28;20072;-72
2023/09/21 08:23:32;;;;;;;0.57;0.57;;;20.00;99.90;;;;;;5042529;28;20632;-71
2023/09/21 08:25:58;;;;;;;0.35;0.35;;;20.00;99.90;;;;;;5049987;28;20525;-71
2023/09/21 08:28:25;;;;;;;0.50;0.50;;;20.00;99.90;;;;;;5052238;28;20105;-72
2023/09/21 08:30:52;;;;;;;0.80;0.80;;;20.00;99.90;;;;;;5049951;28;20076;-72
2023/09/21 08:33:17;;;;;;;0.60;0.60;;;20.00;99.90;;;;;;5043666;28;20044;-72
2023/09/21 08:35:43;;;;;;;1.08;0.98;;;20.00;99.90;;;;;;5048941;28;20524;-72
2023/09/21 08:38:09;;;;;;;0.68;0.60;;;20.00;99.90;;;;;;5047168;28;20080;-72
2023/09/21 08:40:37;;;;;;;1.65;1.42;;;20.00;99.90;;;;;;5049845;28;20075;-71
2023/09/21 08:43:04;;;;;;;1.65;0.55;;;19.90;99.90;;;;;;5061080;28;20382;-71
2023/09/21 08:45:30;;;;;;;1.10;1.05;;;19.90;99.90;;;;;;5056031;28;20064;-72
2023/09/21 08:47:56;;;;;;;0.63;0.63;;;19.90;99.90;;;;;;5052516;28;20084;-71
2023/09/21 08:50:24;;;;;;;0.60;0.60;;;19.80;99.90;;;;;;5048623;28;20098;-72
2023/09/21 08:52:53;;;;;;;;;;;19.80;99.90;;;;;;5046688;28;20060;-72
2023/09/21 08:55:22;;;;;;;0.85;0.85;;;19.70;99.90;;;;;;5041863;28;19971;-73
2023/09/21 08:57:48;;;;;;;0.43;0.43;;;19.70;99.90;;;;;;5047125;28;20044;-75
2023/09/21 09:00:16;;;;;;;0.43;0.40;;;19.70;99.90;;;;;;5055559;28;20102;-75
2023/09/21 09:02:42;;;;;;;0.50;0.50;;;19.70;99.90;;;;;;5044016;28;20057;-77
2023/09/21 09:05:08;;;;;;;0.65;0.65;;;19.70;99.90;;;;;;5024105;28;20040;-75
2023/09/21 09:07:40;;;;;;;0.50;0.50;;;19.60;99.90;;;;;;5049213;28;20052;-75
2023/09/21 09:10:13;;;;;;;0.38;0.38;;;19.60;99.90;;;;;;5042648;28;20071;-76
2023/09/21 09:12:40;;;;;;;0.73;0.73;;;19.60;99.90;;;;;;5037106;28;20057;-76
2023/09/21 09:15:08;;;;;;;0.52;0.52;;;19.50;99.90;;;;;;5042162;28;20498;-76
2023/09/21 09:17:35;;;;;;;0.30;0.30;;;19.50;99.90;;;;;;5053978;28;20053;-76
2023/09/21 09:20:02;;;;;;;0.40;0.40;;;19.40;99.90;;;;;;5051586;28;20073;-76
2023/09/21 09:22:31;;;;;;;0.50;0.50;;;19.40;99.90;;;;;;5054756;28;20084;-76
2023/09/21 09:25:01;;;;;;;0.30;0.30;;;19.40;99.90;;;;;;5039504;28;20777;-76
2023/09/21 09:27:26;;;;;;;0.60;0.60;;;19.30;99.90;;;;;;5045099;28;20049;-76
2023/09/21 09:29:53;;;;;;;0.50;0.50;;;19.30;99.90;;;;;;5043645;28;20136;-75
2023/09/21 09:32:19;;;;;;;0.38;0.38;;;19.30;99.90;;;;;;5049395;28;20120;-75
2023/09/21 09:34:48;;;;;;;0.30;0.30;;;19.30;99.90;;;;;;5049610;28;20056;-76
2023/09/21 09:37:15;;;;;;;0.57;0.57;;;19.20;99.90;;;;;;5038406;28;20037;-76
2023/09/21 09:39:45;;;;;;;0.60;0.60;;;19.20;99.90;;;;;;5051948;28;20048;-76
2023/09/21 09:42:13;;;;;;;0.40;0.40;;;19.10;99.90;;;;;;5054349;28;20545;-76
2023/09/21 09:44:50;;;;;;;0.52;0.52;;;19.10;99.90;;;;;;5042763;28;20052;-77
2023/09/21 09:47:16;;;;;;;0.40;0.40;;;19.10;99.90;;;;;;5050870;28;20402;-77
2023/09/21 09:49:51;;;;;;;0.30;0.30;;;19.00;99.90;;;;;;5052372;28;20056;-77
2023/09/21 09:52:20;;;;;;;0.60;0.60;;;19.10;99.90;;;;;;5051641;28;20045;-77
2023/09/21 09:54:48;;;;;;;0.30;0.30;;;19.00;99.90;;;;;;5058908;28;20044;-76
2023/09/21 09:57:16;;;;;;;0.30;0.30;;;19.00;99.90;;;;;;5046147;28;20514;-76
2023/09/21 09:59:42;;;;;;;0.50;0.50;;;19.00;99.90;;;;;;5040861;28;20047;-75
2023/09/21 10:02:14;;;;;;;0.30;0.30;;;18.90;99.90;;;;;;5060485;28;20405;-75
2023/09/21 10:04:40;;;;;;;0.47;0.47;;;18.90;99.90;;;;;;5047218;28;20091;-75
2023/09/21 10:07:08;;;;;;;0.47;0.47;;;18.90;99.90;;;;;;5050127;28;20474;-76
2023/09/21 10:09:34;;;;;;;0.57;0.57;;;18.90;99.90;;;;;;5048142;28;20501;-75
2023/09/21 10:12:03;;;;;;;0.40;0.40;;;18.90;99.90;;;;;;5043741;28;20067;-75
2023/09/21 10:14:33;;;;;;;0.30;0.30;;;18.80;99.90;;;;;;5056288;28;20048;-75
2023/09/21 10:17:04;;;;;;;0.40;0.40;;;18.80;99.90;;;;;;5054453;28;20044;-75
2023/09/21 10:19:30;;;;;;;0.50;0.50;;;18.70;99.90;;;;;;5049039;28;20056;-75
2023/09/21 10:22:26;;;;;;;0.63;0.63;;;18.70;99.90;;;;;;5052498;28;20478;-75
2023/09/21 10:24:58;;;;;;;0.40;0.40;;;18.70;99.90;;;;;;5047799;28;20051;-75
2023/09/21 10:27:27;;;;;;;0.50;0.50;;;18.60;99.90;;;;;;5052908;28;20057;-75
2023/09/21 10:30:02;;;;;;;0.70;0.70;;;18.50;99.90;;;;;;5055410;28;20081;-75
2023/09/21 10:32:43;;;;;;;0.30;0.30;;;18.40;99.90;;;;;;5052945;28;20060;-74
2023/09/21 10:35:14;;;;;;;0.30;0.30;;;18.40;99.90;;;;;;5045976;28;20490;-76
2023/09/21 10:37:41;;;;;;;0.40;0.40;;;18.30;99.90;;;;;;5052870;28;20596;-75
2023/09/21 10:40:10;;;;;;;1.05;0.60;;;18.20;99.90;;;;;;5050600;28;20056;-76
2023/09/21 10:42:39;;;;;;;1.35;1.30;;;18.20;99.90;;;;;;5061631;28;20041;-77
2023/09/21 10:45:07;;;;;;;0.60;0.60;;;18.20;99.90;;;;;;5064433;28;20045;-76
2023/09/21 10:47:36;;;;;;;0.50;0.50;;;18.10;99.90;;;;;;5052375;28;20063;-77
2023/09/21 10:50:04;;;;;;;0.68;0.68;;;18.00;99.90;;;;;;5042578;28;20041;-77
2023/09/21 10:52:31;;;;;;;0.77;0.77;;;18.00;99.90;;;;;;5051265;28;20054;-75
2023/09/21 10:54:57;;;;;;;0.30;0.30;;;17.90;99.90;;;;;;5055302;28;20048;-76
2023/09/21 10:57:28;;;;;;;0.30;0.30;;;17.80;99.90;;;;;;5062799;28;20140;-75
2023/09/21 10:59:55;;;;;;;0.30;0.30;;;17.80;99.90;;;;;;5061452;28;20058;-75
2023/09/21 11:02:22;;;;;;;0.38;0.38;;;17.80;99.90;;;;;;5049152;28;20049;-75
2023/09/21 11:04:49;;;;;;;0.30;0.30;;;17.80;99.90;;;;;;5055978;28;20055;-75
2023/09/21 11:07:18;;;;;;;0.30;0.30;;;17.80;99.90;;;;;;5056471;28;20041;-75
2023/09/21 11:09:44;;;;;;;0.30;0.30;;;17.80;99.90;;;;;;5059121;28;20536;-75
2023/09/21 11:12:13;;;;;;;0.32;0.32;;;17.80;99.90;;;;;;5053124;28;20040;-75
2023/09/21 11:14:43;;;;;;;0.30;0.30;;;17.80;99.90;;;;;;5047858;28;20509;-75
2023/09/21 11:17:11;;;;;;;0.40;0.40;;;17.80;99.90;;;;;;5061519;28;20541;-75
2023/09/21 11:19:41;;;;;;;0.20;0.20;;;17.70;99.90;;;;;;5035504;28;20052;-75
2023/09/21 11:22:09;;;;;;;0.30;0.30;;;17.70;99.90;;;;;;5045581;28;20056;-76
2023/09/21 11:24:38;;;;;;;0.40;0.40;;;17.70;99.90;;;;;;5048149;28;20057;-76
2023/09/21 11:27:06;;;;;;;0.40;0.40;;;17.70;99.90;;;;;;5045043;28;20053;-77
2023/09/21 11:29:42;;;;;;;0.32;0.32;;;17.60;99.90;;;;;;5053290;28;20045;-76
2023/09/21 11:32:16;;;;;;;0.30;0.30;;;17.60;99.90;;;;;;5042620;28;20049;-76
2023/09/21 11:34:42;;;;;;;0.20;0.20;;;17.60;99.90;;;;;;5048279;28;20502;-76
2023/09/21 11:37:10;;;;;;;0.30;0.30;;;17.50;99.90;;;;;;5043767;28;20043;-75
2023/09/21 11:39:37;;;;;;;0.40;0.40;;;17.50;99.90;;;;;;5056849;28;20048;-75
2023/09/21 11:42:06;;;;;;;0.30;0.30;;;17.50;99.90;;;;;;5048280;28;20088;-76
2023/09/21 11:44:35;;;;;;;0.32;0.32;;;17.50;99.90;;;;;;5041110;28;20387;-76
2023/09/21 11:47:01;;;;;;;0.40;0.40;;;17.50;99.90;;;;;;5039136;28;20045;-75
2023/09/21 11:49:35;;;;;;;0.40;0.40;;;17.60;99.90;;;;;;5053045;28;20112;-76
2023/09/21 11:52:01;;;;;;;0.30;0.30;;;17.60;99.90;;;;;;5048773;28;20053;-75
2023/09/21 11:54:29;;;;;;;0.30;0.30;;;17.60;99.90;;;;;;5037695;28;20036;-76
2023/09/21 11:56:54;;;;;;;;;;;17.70;99.90;;;;;;5058205;28;20083;-76
2023/09/21 11:59:20;;;;;;;0.30;0.30;;;17.80;99.90;;;;;;5046984;28;19960;-76
2023/09/21 12:01:48;;;;;;;0.40;0.40;;;17.90;99.90;;;;;;5053545;28;20390;-75
2023/09/21 12:04:16;;;;;;;0.20;0.20;;;18.10;99.90;;;;;;5055012;28;20087;-76
2023/09/21 12:06:42;;;;;;;0.30;0.30;;;18.20;99.90;;;;;;5029004;28;20049;-76
2023/09/21 12:09:08;;;;;;;0.50;0.50;;;18.30;99.90;;;;;;5052088;28;20106;-75
2023/09/21 12:11:34;;;;;;;0.30;0.30;;;18.40;99.90;;;;;;5052065;28;20497;-76
2023/09/21 12:14:04;;;;;;;0.47;0.47;;;18.60;99.90;;;;;;5050154;28;20056;-75
2023/09/21 12:16:35;;;;;;;0.30;0.30;;;18.60;99.90;;;;;;5046432;28;20045;-76
2023/09/21 12:19:00;;;;;;;0.30;0.30;;;18.70;99.90;;;;;;5054800;28;20045;-76
2023/09/21 12:21:26;;;;;;;0.38;0.38;;;18.70;99.90;;;;;;5061430;28;20497;-76
2023/09/21 12:23:52;;;;;;;0.30;0.30;;;18.80;99.90;;;;;;5061478;28;20052;-75
2023/09/21 12:26:18;;;;;;;0.30;0.30;;;18.80;99.90;;;;;;5044800;28;20813;-76
2023/09/21 12:28:44;;;;;;;0.35;0.35;;;18.80;99.90;;;;;;5054039;28;20124;-76
2023/09/21 12:31:10;;;;;;;0.30;0.30;;;18.90;99.90;;;;;;5048193;28;20705;-75
2023/09/21 12:33:36;;;;;;;0.30;0.30;;;18.90;99.90;;;;;;5047800;28;20135;-75
2023/09/21 12:36:05;;;;;;;0.30;0.30;;;18.80;99.90;;;;;;5048200;28;20055;-75
2023/09/21 12:38:32;;;;;;;0.40;0.40;;;18.70;99.90;;;;;;5050056;28;20051;-76
2023/09/21 12:40:59;;;;;;;0.40;0.40;;;18.60;99.90;;;;;;5053258;28;20110;-75
2023/09/21 12:43:25;;;;;;;0.40;0.40;;;18.50;99.90;;;;;;5042040;28;20044;-75
2023/09/21 12:45:51;;;;;;;0.40;0.40;;;18.50;99.90;;;;;;5025931;28;20055;-75
2023/09/21 12:48:19;;;;;;;0.40;0.40;;;18.50;99.90;;;;;;5057113;28;20051;-75
2023/09/21 12:50:44;;;;;;;0.40;0.40;;;18.50;99.90;;;;;;5043102;28;20040;-76